Time;durP1;ratioP1;P1;durP2;ratioP2;P2;SDS_P1;SDS_P2;PMS_P1;PMS_P2;Temp;Humidity;BMP_temperature;BMP_pressure;BME280_temperature;BME280_humidity;BME280_pressure;Samples;Min_cycle;Max_cycle;Signal;HPM_P1;HPM_P2
2021/05/06 00:34:06;;;;;;;1.42;1.10;;;5.70;99.90;;;;;;5035729;28;20203;-66
2021/05/06 00:36:34;;;;;;;1.80;1.70;;;5.60;99.90;;;;;;5027790;28;20216;-66
2021/05/06 00:39:06;;;;;;;1.98;0.98;;;5.70;99.90;;;;;;5034998;28;20508;-65
2021/05/06 00:42:01;;;;;;;1.45;1.35;;;5.60;99.90;;;;;;5038936;28;20215;-66
2021/05/06 00:53:59;;;;;;;0.60;0.60;;;5.40;99.90;;;;;;5035554;28;20206;-66
2021/05/06 01:05:41;;;;;;;0.70;0.70;;;5.40;99.90;;;;;;5036524;28;20548;-66
2021/05/06 01:08:22;;;;;;;1.13;1.05;;;5.40;99.90;;;;;;5023998;28;20449;-66
2021/05/06 01:11:03;;;;;;;0.50;0.50;;;5.40;99.90;;;;;;5037552;28;20417;-66
2021/05/06 01:13:32;;;;;;;0.70;0.70;;;5.40;99.90;;;;;;5037483;28;20203;-65
2021/05/06 01:15:59;;;;;;;0.93;0.93;;;5.30;99.90;;;;;;5025316;28;20216;-65
2021/05/06 01:18:25;;;;;;;1.13;1.05;;;5.30;99.90;;;;;;5032778;28;20274;-66
2021/05/06 01:20:59;;;;;;;1.60;1.05;;;5.40;99.90;;;;;;5022127;28;20239;-66
2021/05/06 01:23:27;;;;;;;3.50;0.90;;;5.30;99.90;;;;;;5037446;28;20204;-65
2021/05/06 01:26:00;;;;;;;1.00;1.00;;;5.30;99.90;;;;;;5033992;28;20577;-65
2021/05/06 01:28:33;;;;;;;0.60;0.60;;;5.30;99.90;;;;;;5037027;28;20207;-66
2021/05/06 01:31:06;;;;;;;1.33;1.23;;;5.30;99.90;;;;;;5035950;28;20518;-65
2021/05/06 01:36:18;;;;;;;0.85;0.85;;;5.40;99.90;;;;;;5030807;28;20298;-66
2021/05/06 02:00:01;;;;;;;2.00;1.00;;;5.10;99.90;;;;;;5044624;28;20206;-66
2021/05/06 02:02:27;;;;;;;1.20;1.13;;;5.70;99.90;;;;;;5059537;28;20532;-65
2021/05/06 02:04:54;;;;;;;1.13;1.00;;;5.00;99.90;;;;;;5059109;28;20233;-66
2021/05/06 02:07:22;;;;;;;0.85;0.85;;;5.00;99.90;;;;;;5057205;28;20206;-66
2021/05/06 02:09:50;;;;;;;0.90;0.85;;;5.10;99.90;;;;;;5059943;28;20214;-66
2021/05/06 02:12:18;;;;;;;0.50;0.50;;;5.60;99.90;;;;;;5059118;28;20309;-66
2021/05/06 02:17:42;;;;;;;0.93;0.93;;;5.10;99.90;;;;;;5042409;28;20206;-65
2021/05/06 02:20:09;;;;;;;1.05;1.00;;;5.10;99.90;;;;;;5060067;28;20421;-65
2021/05/06 02:22:36;;;;;;;1.35;1.10;;;5.00;99.90;;;;;;5056510;28;20215;-66
2021/05/06 02:25:07;;;;;;;1.00;0.95;;;5.00;99.90;;;;;;5058815;28;20534;-66
2021/05/06 02:27:35;;;;;;;0.98;0.75;;;5.00;99.90;;;;;;5052459;28;20206;-66
2021/05/06 02:30:02;;;;;;;0.60;0.60;;;5.00;99.90;;;;;;5058414;28;20245;-66
2021/05/06 02:32:29;;;;;;;1.55;1.45;;;5.00;99.90;;;;;;5059909;28;20298;-66
2021/05/06 02:34:57;;;;;;;1.08;1.02;;;5.10;99.90;;;;;;5048791;28;20211;-66
2021/05/06 02:37:23;;;;;;;1.08;0.98;;;5.00;99.90;;;;;;5048916;28;20471;-66
2021/05/06 02:39:52;;;;;;;1.65;1.38;;;4.90;99.90;;;;;;5054946;28;20211;-66
2021/05/06 02:42:18;;;;;;;0.82;0.77;;;4.90;99.90;;;;;;5055837;28;20210;-66
2021/05/06 02:44:45;;;;;;;1.88;1.35;;;4.80;99.90;;;;;;5051796;28;20238;-66
2021/05/06 02:47:12;;;;;;;0.60;0.60;;;4.80;99.90;;;;;;5051000;28;20208;-66
2021/05/06 02:49:47;;;;;;;1.50;1.40;;;4.80;99.90;;;;;;5058685;28;20273;-66
2021/05/06 02:52:22;;;;;;;0.93;0.70;;;4.80;99.90;;;;;;5042498;28;20211;-66
2021/05/06 02:57:48;;;;;;;0.80;0.80;;;4.60;99.90;;;;;;5049237;28;20204;-66
2021/05/06 03:03:00;;;;;;;5.47;1.40;;;4.50;99.90;;;;;;5039740;28;20212;-66
2021/05/06 03:05:30;;;;;;;0.85;0.85;;;4.50;99.90;;;;;;5050850;28;20251;-65
2021/05/06 03:24:01;;;;;;;2.45;0.98;;;4.40;99.90;;;;;;5048036;28;20225;-65
2021/05/06 03:26:30;;;;;;;1.05;1.05;;;4.40;99.90;;;;;;5058014;28;20234;-65
2021/05/06 03:29:01;;;;;;;1.95;1.30;;;4.50;99.90;;;;;;5064733;28;20286;-65
2021/05/06 03:43:01;;;;;;;1.67;1.58;;;4.70;99.90;;;;;;5053022;28;20217;-66
2021/05/06 04:18:38;;;;;;;1.42;1.40;;;5.90;99.90;;;;;;5057049;28;21695;-66
2021/05/06 04:37:27;;;;;;;2.08;1.92;;;6.30;99.90;;;;;;5048416;28;20291;-65
2021/05/06 04:39:57;;;;;;;1.27;1.17;;;6.40;99.90;;;;;;5056505;28;20221;-65
2021/05/06 05:04:00;;;;;;;1.67;1.58;;;7.90;98.30;;;;;;5053406;28;20514;-65
2021/05/06 05:06:30;;;;;;;3.38;2.90;;;8.00;98.40;;;;;;5055808;28;20574;-65
2021/05/06 05:09:14;;;;;;;3.83;1.77;;;8.10;98.10;;;;;;5055284;28;20210;-66
2021/05/06 05:11:54;;;;;;;2.88;2.35;;;8.20;97.90;;;;;;5053596;28;20196;-66
2021/05/06 05:25:08;;;;;;;3.75;3.47;;;9.20;96.20;;;;;;5033956;28;21713;-65
2021/05/06 05:27:35;;;;;;;2.97;2.60;;;9.40;95.80;;;;;;5016463;28;21048;-66
2021/05/06 05:30:01;;;;;;;2.15;1.95;;;9.40;95.40;;;;;;5042526;28;20213;-67
2021/05/06 05:32:28;;;;;;;1.70;1.60;;;9.60;94.90;;;;;;5044405;28;21116;-65
2021/05/06 05:35:19;;;;;;;10.05;3.55;;;9.80;94.30;;;;;;5048454;28;20221;-66
2021/05/06 05:37:48;;;;;;;2.25;2.15;;;9.90;93.80;;;;;;5042670;28;20503;-66
2021/05/06 05:40:29;;;;;;;3.15;2.95;;;10.10;93.30;;;;;;5039090;28;20368;-66
2021/05/06 05:54:32;;;;;;;4.38;3.40;;;10.60;92.30;;;;;;5044572;28;20225;-64
2021/05/06 05:56:42;;;;;;;2.78;2.58;;;11.00;91.30;;;;;;5041588;28;20502;-67
2021/05/06 05:59:08;;;;;;;3.15;2.95;;;11.20;90.60;;;;;;5042747;28;20222;-66
2021/05/06 06:01:35;;;;;;;6.32;3.15;;;11.60;90.00;;;;;;5049249;28;20222;-66
2021/05/06 06:04:02;;;;;;;4.45;4.22;;;12.10;87.90;;;;;;5050287;28;20224;-65
2021/05/06 06:06:29;;;;;;;4.28;3.97;;;12.40;86.90;;;;;;5059570;28;20266;-66
2021/05/06 06:08:55;;;;;;;4.03;3.83;;;12.90;83.60;;;;;;5054500;28;20224;-66
2021/05/06 06:11:22;;;;;;;4.15;3.97;;;13.60;81.10;;;;;;5059207;28;20218;-66
2021/05/06 06:13:52;;;;;;;4.20;3.92;;;14.20;78.40;;;;;;5054043;28;20253;-65
2021/05/06 06:16:22;;;;;;;4.97;4.70;;;15.20;73.20;;;;;;5049397;28;20553;-66
2021/05/06 06:18:54;;;;;;;6.60;6.30;;;16.30;65.50;;;;;;5055169;28;20799;-66
2021/05/06 06:24:06;;;;;;;5.90;5.50;;;17.70;59.40;;;;;;5047032;28;20601;-67
2021/05/06 06:26:32;;;;;;;5.50;5.30;;;17.90;57.80;;;;;;5058220;28;20487;-67
2021/05/06 06:29:06;;;;;;;5.20;4.90;;;17.30;57.80;;;;;;5055689;28;20782;-66
2021/05/06 06:31:43;;;;;;;5.30;5.10;;;17.20;57.90;;;;;;5058921;28;20417;-65
2021/05/06 06:34:09;;;;;;;5.57;5.37;;;17.70;56.40;;;;;;5057243;28;20436;-65
2021/05/06 06:36:38;;;;;;;5.67;5.37;;;19.10;53.40;;;;;;5057852;28;20444;-66
2021/05/06 06:39:06;;;;;;;5.10;4.90;;;19.20;52.50;;;;;;5058429;28;20609;-67
2021/05/06 06:41:33;;;;;;;5.90;5.70;;;19.80;51.00;;;;;;5058524;28;20444;-66
2021/05/06 06:44:01;;;;;;;5.90;5.70;;;20.40;49.70;;;;;;5056605;28;20417;-66
2021/05/06 06:46:28;;;;;;;6.73;6.40;;;21.30;47.80;;;;;;5060589;28;20448;-66
2021/05/06 06:48:57;;;;;;;6.17;5.97;;;22.10;45.40;;;;;;5058017;28;20508;-65
2021/05/06 06:51:24;;;;;;;6.40;6.00;;;23.30;44.60;;;;;;5057200;28;20529;-65
2021/05/06 06:53:51;;;;;;;6.07;5.83;;;23.60;42.40;;;;;;5057576;28;20472;-66
2021/05/06 06:56:18;;;;;;;6.30;6.00;;;23.20;42.60;;;;;;5057547;28;20453;-64
2021/05/06 06:58:49;;;;;;;5.57;5.37;;;23.00;43.30;;;;;;5057230;28;20473;-66
2021/05/06 07:01:16;;;;;;;6.27;5.87;;;23.30;42.00;;;;;;5056284;28;20496;-65
2021/05/06 07:03:44;;;;;;;6.33;6.03;;;23.30;41.50;;;;;;5047037;28;20441;-66
2021/05/06 07:06:12;;;;;;;6.30;6.10;;;22.90;42.50;;;;;;5059594;28;20784;-66
2021/05/06 07:08:41;;;;;;;5.80;5.60;;;22.70;42.60;;;;;;5041697;28;20446;-67
2021/05/06 07:11:09;;;;;;;5.73;5.53;;;23.20;41.30;;;;;;5051563;28;20601;-66
2021/05/06 07:13:36;;;;;;;6.73;6.33;;;22.50;42.40;;;;;;5046231;28;20769;-66
2021/05/06 07:16:05;;;;;;;5.50;5.27;;;21.20;46.00;;;;;;5044543;28;20434;-66
2021/05/06 07:18:33;;;;;;;5.90;5.60;;;20.60;46.30;;;;;;5043226;28;20465;-67
2021/05/06 07:21:02;;;;;;;5.17;4.97;;;19.50;48.10;;;;;;5054087;28;20488;-66
2021/05/06 07:23:30;;;;;;;6.10;5.70;;;20.20;46.70;;;;;;5041589;28;20426;-67
2021/05/06 07:26:02;;;;;;;5.80;5.50;;;21.70;43.30;;;;;;5045171;28;20823;-67
2021/05/06 07:28:39;;;;;;;6.23;5.93;;;22.40;41.40;;;;;;5052279;28;20817;-66
2021/05/06 07:31:10;;;;;;;5.83;5.43;;;23.40;41.20;;;;;;5047660;28;20441;-66
2021/05/06 07:33:43;;;;;;;5.93;5.67;;;24.60;38.80;;;;;;5043042;28;20739;-66
2021/05/06 07:36:15;;;;;;;6.97;6.67;;;24.90;37.00;;;;;;5043503;28;20771;-66
2021/05/06 07:38:46;;;;;;;6.50;6.20;;;25.20;37.30;;;;;;5053471;28;20419;-65
2021/05/06 07:41:16;;;;;;;6.80;6.40;;;25.90;36.20;;;;;;5067110;28;20798;-66
2021/05/06 07:43:46;;;;;;;6.53;6.23;;;24.40;38.40;;;;;;5057051;28;20671;-67
2021/05/06 07:46:17;;;;;;;6.67;6.37;;;24.60;36.60;;;;;;5065823;28;20469;-66
2021/05/06 07:48:52;;;;;;;6.43;6.13;;;25.00;36.60;;;;;;5065071;28;20476;-65
2021/05/06 07:51:25;;;;;;;7.40;6.97;;;25.50;36.60;;;;;;5057257;28;20498;-65
2021/05/06 07:53:55;;;;;;;6.70;6.40;;;25.70;35.20;;;;;;5058459;28;20678;-65
2021/05/06 07:56:28;;;;;;;6.30;6.00;;;25.30;36.40;;;;;;5062295;28;20453;-66
2021/05/06 07:58:55;;;;;;;6.77;6.43;;;25.70;35.20;;;;;;5066107;28;20767;-65
2021/05/06 08:01:21;;;;;;;7.23;6.83;;;26.70;34.20;;;;;;5050961;28;20473;-66
2021/05/06 08:03:54;;;;;;;7.30;7.00;;;27.70;32.30;;;;;;5042954;28;20449;-66
2021/05/06 08:06:24;;;;;;;6.40;6.00;;;27.20;31.00;;;;;;5043351;28;20476;-65
2021/05/06 08:08:52;;;;;;;6.07;5.87;;;27.00;32.90;;;;;;5054129;28;20437;-68
2021/05/06 08:11:21;;;;;;;6.70;6.40;;;26.30;31.80;;;;;;5056951;28;20433;-66
2021/05/06 08:13:48;;;;;;;7.40;7.00;;;25.70;33.40;;;;;;5056792;28;20453;-66
2021/05/06 08:16:14;;;;;;;7.00;6.70;;;23.50;35.50;;;;;;5062839;28;20444;-66
2021/05/06 08:18:41;;;;;;;7.33;6.90;;;22.60;37.10;;;;;;5065129;28;20489;-66
2021/05/06 08:21:08;;;;;;;7.13;6.83;;;22.70;37.20;;;;;;5058546;28;20483;-64
2021/05/06 08:23:35;;;;;;;7.83;7.53;;;22.70;37.50;;;;;;5056116;28;20491;-68
2021/05/06 08:26:02;;;;;;;6.60;6.30;;;22.90;37.40;;;;;;5057010;28;20698;-67
2021/05/06 08:28:46;;;;;;;6.80;6.50;;;22.60;37.10;;;;;;5057053;28;20992;-66
2021/05/06 08:31:13;;;;;;;6.17;5.97;;;21.90;38.10;;;;;;5056110;28;20509;-66
2021/05/06 08:33:40;;;;;;;7.13;6.73;;;21.00;39.20;;;;;;5056494;28;20789;-66
2021/05/06 08:36:07;;;;;;;6.67;6.37;;;22.00;38.60;;;;;;5053449;28;20459;-68
2021/05/06 08:38:34;;;;;;;6.43;6.23;;;23.40;35.80;;;;;;5050761;28;20412;-66
2021/05/06 08:41:02;;;;;;;7.00;6.40;;;23.30;34.50;;;;;;5055604;28;20443;-66
2021/05/06 08:43:33;;;;;;;6.17;5.97;;;21.70;36.90;;;;;;5056158;28;20438;-66
2021/05/06 08:46:00;;;;;;;6.67;6.30;;;20.40;39.30;;;;;;5052788;28;20878;-68
2021/05/06 08:48:29;;;;;;;6.40;6.10;;;19.90;40.90;;;;;;5055412;28;20437;-66
2021/05/06 08:50:57;;;;;;;6.47;6.00;;;21.00;38.20;;;;;;5047253;28;20422;-66
2021/05/06 08:53:24;;;;;;;6.33;6.03;;;19.70;39.50;;;;;;5062062;28;20552;-67
2021/05/06 08:55:56;;;;;;;6.80;5.50;;;18.70;41.60;;;;;;5048462;28;20627;-66
2021/05/06 08:58:23;;;;;;;7.97;7.37;;;18.90;41.80;;;;;;5054495;28;20423;-66
2021/05/06 09:00:50;;;;;;;6.00;5.80;;;21.60;37.40;;;;;;5050794;28;20423;-68
2021/05/06 09:03:17;;;;;;;5.63;5.43;;;22.00;36.80;;;;;;5054030;28;20483;-66
2021/05/06 09:06:07;;;;;;;5.90;5.70;;;20.90;38.10;;;;;;5053130;28;20498;-66
2021/05/06 09:08:38;;;;;;;5.87;5.67;;;20.70;38.60;;;;;;5056632;28;20448;-67
2021/05/06 09:11:05;;;;;;;6.30;6.00;;;21.90;36.80;;;;;;5050767;28;20663;-66
2021/05/06 09:13:32;;;;;;;6.03;5.77;;;21.30;37.00;;;;;;5051296;28;20442;-67
2021/05/06 09:16:00;;;;;;;5.90;5.60;;;20.40;37.10;;;;;;5051485;28;20498;-67
2021/05/06 09:18:44;;;;;;;6.13;5.93;;;19.30;39.40;;;;;;5055469;28;20449;-68
2021/05/06 09:21:32;;;;;;;6.03;5.73;;;18.60;40.70;;;;;;5055417;28;20418;-66
2021/05/06 09:24:20;;;;;;;5.63;5.23;;;17.80;42.10;;;;;;5055767;28;20447;-66
2021/05/06 09:26:47;;;;;;;8.20;7.80;;;17.60;42.20;;;;;;5051070;28;20478;-66
2021/05/06 09:29:28;;;;;;;6.90;6.40;;;17.00;44.10;;;;;;5057663;28;20506;-66
2021/05/06 09:32:22;;;;;;;5.43;5.23;;;17.20;44.00;;;;;;5061349;28;20413;-67
2021/05/06 09:34:53;;;;;;;5.53;5.33;;;17.40;42.40;;;;;;5062181;28;20415;-66
2021/05/06 09:37:27;;;;;;;5.43;5.23;;;17.70;43.10;;;;;;5055919;28;20516;-67
2021/05/06 09:39:58;;;;;;;6.27;5.87;;;17.80;42.30;;;;;;5056970;28;20722;-69
2021/05/06 09:42:37;;;;;;;5.57;5.37;;;17.60;41.20;;;;;;5055389;28;20684;-67
2021/05/06 09:45:06;;;;;;;5.57;5.37;;;17.70;40.90;;;;;;5045947;28;20439;-66
2021/05/06 09:47:34;;;;;;;7.53;6.80;;;17.70;43.80;;;;;;5064375;28;20450;-66
2021/05/06 09:50:01;;;;;;;5.70;5.40;;;17.80;42.90;;;;;;5057829;28;20621;-67
2021/05/06 09:52:48;;;;;;;5.87;5.67;;;17.80;42.20;;;;;;5055262;28;20729;-67
2021/05/06 09:55:14;;;;;;;6.20;5.83;;;17.70;42.20;;;;;;5054982;28;20446;-66
2021/05/06 09:57:42;;;;;;;6.10;5.90;;;17.20;44.10;;;;;;5050068;28;20452;-68
2021/05/06 10:00:13;;;;;;;6.27;5.97;;;16.70;45.10;;;;;;5048886;28;20411;-66
2021/05/06 10:02:40;;;;;;;6.40;6.07;;;16.20;47.30;;;;;;5052937;28;20469;-66
2021/05/06 10:05:16;;;;;;;5.50;5.33;;;15.70;52.30;;;;;;5049348;28;20465;-66
2021/05/06 10:07:53;;;;;;;6.77;6.43;;;15.20;55.30;;;;;;5049249;28;20415;-67
2021/05/06 10:10:24;;;;;;;5.30;5.10;;;15.10;56.00;;;;;;5050313;28;20415;-65
2021/05/06 10:12:51;;;;;;;5.63;5.33;;;15.50;53.70;;;;;;5055338;28;20452;-65
2021/05/06 10:15:18;;;;;;;6.23;5.70;;;16.00;50.20;;;;;;5058251;28;20513;-67
2021/05/06 10:17:46;;;;;;;5.13;4.90;;;16.20;48.50;;;;;;5051298;28;20510;-67
2021/05/06 10:20:14;;;;;;;5.90;5.60;;;16.30;48.60;;;;;;5049829;28;20522;-66
2021/05/06 10:22:43;;;;;;;5.73;5.47;;;16.50;48.50;;;;;;5051725;28;20445;-66
2021/05/06 10:25:10;;;;;;;5.23;5.13;;;16.90;46.90;;;;;;5050264;28;20445;-68
2021/05/06 10:27:40;;;;;;;5.70;5.43;;;17.00;44.20;;;;;;5053576;28;20447;-65
2021/05/06 10:30:11;;;;;;;5.13;4.90;;;17.20;46.80;;;;;;5055737;28;20433;-67
2021/05/06 10:32:45;;;;;;;5.43;5.23;;;17.40;46.00;;;;;;5059003;28;20417;-66
2021/05/06 10:35:24;;;;;;;6.03;5.67;;;17.30;45.60;;;;;;5059602;28;20630;-68
2021/05/06 10:37:55;;;;;;;6.20;6.00;;;17.10;46.10;;;;;;5059912;28;20820;-69
2021/05/06 10:40:22;;;;;;;5.57;5.37;;;17.20;45.40;;;;;;5061959;28;20482;-69
2021/05/06 10:42:49;;;;;;;5.53;5.33;;;17.10;46.90;;;;;;5059061;28;20452;-67
2021/05/06 10:45:19;;;;;;;5.30;4.80;;;17.20;44.80;;;;;;5060042;28;20886;-66
2021/05/06 10:47:49;;;;;;;5.40;5.20;;;18.20;46.00;;;;;;5046384;28;20646;-66
2021/05/06 10:50:40;;;;;;;5.60;5.40;;;17.80;44.10;;;;;;5050521;28;20412;-67
2021/05/06 10:53:09;;;;;;;5.40;5.20;;;17.70;44.10;;;;;;5054085;28;21009;-68
2021/05/06 10:55:53;;;;;;;6.03;5.73;;;17.70;43.90;;;;;;5051417;28;20725;-68
2021/05/06 10:58:25;;;;;;;5.67;5.33;;;17.60;44.40;;;;;;5057803;28;20444;-67
2021/05/06 11:01:04;;;;;;;4.80;4.70;;;17.50;45.80;;;;;;5064889;28;20419;-67
2021/05/06 11:03:32;;;;;;;4.90;4.77;;;17.50;44.40;;;;;;5049372;28;20532;-67
2021/05/06 11:06:00;;;;;;;5.33;5.10;;;17.20;44.70;;;;;;5056556;28;20893;-67
2021/05/06 11:08:36;;;;;;;6.50;5.33;;;16.80;44.80;;;;;;5054929;28;20418;-67
2021/05/06 11:11:06;;;;;;;5.27;4.87;;;16.30;46.30;;;;;;5057686;28;20451;-69
2021/05/06 11:14:05;;;;;;;5.07;4.90;;;16.00;47.50;;;;;;5058249;28;20414;-67
2021/05/06 11:16:34;;;;;;;5.03;4.82;;;15.30;49.90;;;;;;5057648;28;20468;-68
2021/05/06 11:19:01;;;;;;;4.72;4.63;;;14.70;52.80;;;;;;5053721;28;20516;-67
2021/05/06 11:21:33;;;;;;;4.55;4.32;;;14.00;62.00;;;;;;5063230;28;20672;-67
2021/05/06 11:24:23;;;;;;;4.30;4.10;;;13.10;64.30;;;;;;5056056;28;20231;-68
2021/05/06 11:27:10;;;;;;;2.00;1.90;;;12.30;84.90;;;;;;5062749;28;20227;-67
2021/05/06 11:29:42;;;;;;;2.65;2.45;;;11.80;97.10;;;;;;5061432;28;20214;-68
2021/05/06 11:32:23;;;;;;;1.83;1.67;;;12.10;98.40;;;;;;5060589;28;20302;-68
2021/05/06 11:34:52;;;;;;;1.40;1.20;;;12.80;96.40;;;;;;5052785;28;20219;-67
2021/05/06 11:37:23;;;;;;;2.35;1.90;;;13.20;92.70;;;;;;5058325;28;20208;-68
2021/05/06 11:40:31;;;;;;;3.25;3.05;;;13.60;91.80;;;;;;5058784;28;20278;-68
2021/05/06 11:42:57;;;;;;;3.10;3.00;;;14.20;91.10;;;;;;5057399;28;20540;-67
2021/05/06 11:45:27;;;;;;;3.30;3.20;;;14.60;88.80;;;;;;5056109;28;20406;-67
2021/05/06 11:47:55;;;;;;;4.15;3.95;;;14.80;85.90;;;;;;5056197;28;20837;-66
2021/05/06 11:50:26;;;;;;;4.32;4.10;;;14.70;82.60;;;;;;5057581;28;20211;-68
2021/05/06 11:52:54;;;;;;;3.80;3.70;;;14.40;81.90;;;;;;5055794;28;20243;-66
2021/05/06 11:55:41;;;;;;;5.28;5.00;;;14.50;82.10;;;;;;5047463;28;20207;-67
2021/05/06 11:58:09;;;;;;;5.13;4.63;;;14.40;80.90;;;;;;5039222;28;21378;-68
2021/05/06 12:00:41;;;;;;;4.70;4.30;;;14.40;80.80;;;;;;5057369;28;20231;-67
2021/05/06 12:03:12;;;;;;;4.78;4.28;;;14.50;79.50;;;;;;5049070;28;20215;-69
2021/05/06 12:06:01;;;;;;;6.22;4.88;;;14.80;77.80;;;;;;5053671;28;20285;-67
2021/05/06 12:08:45;;;;;;;4.60;4.50;;;14.90;75.30;;;;;;5056119;28;20446;-67
2021/05/06 12:11:13;;;;;;;4.70;4.50;;;14.90;75.60;;;;;;5048590;28;20204;-68
2021/05/06 12:13:43;;;;;;;5.25;4.85;;;15.10;73.10;;;;;;5057139;28;20212;-68
2021/05/06 12:16:20;;;;;;;5.32;5.13;;;15.00;70.80;;;;;;5057005;28;20507;-66
2021/05/06 12:19:02;;;;;;;5.28;4.88;;;15.10;69.90;;;;;;5051318;28;20212;-68
2021/05/06 12:21:45;;;;;;;5.13;4.83;;;15.30;70.40;;;;;;5049763;28;20208;-67
2021/05/06 12:24:25;;;;;;;5.00;4.80;;;15.50;70.70;;;;;;5046320;28;20408;-66
2021/05/06 12:26:51;;;;;;;5.90;5.50;;;15.50;71.00;;;;;;5056085;28;20454;-66
2021/05/06 12:29:24;;;;;;;5.10;4.90;;;15.40;69.00;;;;;;5056981;28;20447;-67
2021/05/06 12:31:52;;;;;;;5.30;5.10;;;15.20;70.40;;;;;;5057002;28;20457;-67
2021/05/06 12:34:22;;;;;;;4.30;4.10;;;15.40;67.90;;;;;;5051281;28;20435;-68
2021/05/06 12:36:58;;;;;;;5.13;4.83;;;15.70;64.90;;;;;;5051017;28;20482;-66
2021/05/06 12:39:26;;;;;;;4.80;4.50;;;16.10;64.20;;;;;;5057064;28;20577;-67
2021/05/06 12:41:58;;;;;;;5.10;4.80;;;16.50;64.10;;;;;;5050252;28;20449;-67
2021/05/06 12:44:42;;;;;;;5.90;5.43;;;16.90;63.20;;;;;;5055886;28;20485;-66
2021/05/06 12:47:43;;;;;;;5.60;5.30;;;17.10;60.40;;;;;;5051172;28;20457;-67
2021/05/06 12:50:21;;;;;;;4.40;4.30;;;16.70;59.40;;;;;;5054168;28;20532;-69
2021/05/06 12:52:51;;;;;;;5.67;5.33;;;16.50;59.40;;;;;;5054603;28;20560;-67
2021/05/06 12:55:29;;;;;;;5.23;4.97;;;16.20;61.80;;;;;;5053021;28;20409;-67
2021/05/06 12:58:08;;;;;;;5.20;5.00;;;15.80;62.70;;;;;;5055592;28;20421;-67
2021/05/06 13:00:36;;;;;;;4.67;4.47;;;15.50;63.90;;;;;;5056750;28;20417;-67
2021/05/06 13:03:08;;;;;;;5.80;4.87;;;15.40;71.70;;;;;;5060324;28;20434;-66
2021/05/06 13:05:38;;;;;;;4.95;4.65;;;15.40;74.30;;;;;;5055172;28;20480;-68
2021/05/06 13:08:05;;;;;;;4.70;4.60;;;15.60;65.70;;;;;;5055912;28;20205;-68
2021/05/06 13:10:37;;;;;;;5.03;4.70;;;15.80;61.30;;;;;;5056592;28;20576;-67
2021/05/06 13:13:08;;;;;;;5.23;4.93;;;16.10;61.90;;;;;;5056129;28;20440;-67
2021/05/06 13:15:52;;;;;;;5.33;5.03;;;16.40;58.80;;;;;;5042573;28;20450;-66
2021/05/06 13:18:19;;;;;;;5.00;4.80;;;16.40;58.50;;;;;;5054305;28;20450;-68
2021/05/06 13:20:48;;;;;;;4.90;4.70;;;16.10;59.40;;;;;;5056387;28;20480;-66
2021/05/06 13:23:30;;;;;;;5.47;5.27;;;15.90;58.90;;;;;;5056953;28;20447;-65
2021/05/06 13:26:05;;;;;;;5.27;5.07;;;15.90;58.40;;;;;;5056267;28;20449;-67
2021/05/06 13:28:32;;;;;;;5.30;5.10;;;16.30;58.30;;;;;;5047989;28;20447;-67
2021/05/06 13:31:08;;;;;;;5.23;5.03;;;16.60;57.20;;;;;;5045672;28;20439;-68
2021/05/06 13:33:34;;;;;;;5.53;5.33;;;16.40;58.00;;;;;;5047886;28;20469;-68
2021/05/06 13:36:08;;;;;;;5.20;5.00;;;16.60;57.60;;;;;;5051087;28;21401;-67
2021/05/06 13:38:55;;;;;;;5.43;5.23;;;17.00;57.50;;;;;;5053700;28;20478;-67
2021/05/06 13:41:28;;;;;;;5.20;5.00;;;17.20;57.20;;;;;;5052560;28;20448;-68
2021/05/06 13:43:56;;;;;;;4.97;4.87;;;17.20;57.10;;;;;;5059744;28;20432;-68
2021/05/06 13:46:25;;;;;;;5.07;4.87;;;16.80;55.60;;;;;;5057127;28;20822;-67
2021/05/06 13:48:52;;;;;;;5.00;4.80;;;16.60;54.90;;;;;;5055129;28;20440;-67
2021/05/06 13:51:21;;;;;;;5.40;5.10;;;16.40;55.20;;;;;;5048947;28;20433;-68
2021/05/06 13:53:49;;;;;;;5.90;5.50;;;16.30;55.70;;;;;;5045043;28;20482;-68
2021/05/06 13:56:17;;;;;;;5.60;5.30;;;16.20;56.10;;;;;;5054523;28;20459;-68
2021/05/06 13:58:43;;;;;;;5.60;5.30;;;16.30;55.60;;;;;;5043814;28;20424;-67
2021/05/06 14:01:12;;;;;;;5.30;5.10;;;16.30;55.50;;;;;;5043021;28;20570;-69
2021/05/06 14:03:40;;;;;;;4.50;4.40;;;16.10;55.60;;;;;;5037845;28;20492;-65
2021/05/06 14:06:07;;;;;;;5.03;4.83;;;15.60;55.20;;;;;;5040474;28;20456;-67
2021/05/06 14:08:34;;;;;;;6.17;5.77;;;15.30;56.90;;;;;;5052423;28;20416;-68
2021/05/06 14:11:02;;;;;;;4.45;4.35;;;15.00;60.40;;;;;;5045760;28;20505;-70
2021/05/06 14:13:31;;;;;;;4.80;4.60;;;14.60;63.00;;;;;;5046698;28;20299;-67
2021/05/06 14:15:59;;;;;;;4.90;4.70;;;14.40;63.10;;;;;;5043336;28;20261;-67
2021/05/06 14:18:25;;;;;;;5.30;5.00;;;14.10;65.80;;;;;;5041728;28;20212;-67
2021/05/06 14:20:58;;;;;;;5.28;5.07;;;14.10;67.60;;;;;;5038040;28;20307;-68
2021/05/06 14:23:25;;;;;;;5.07;4.88;;;14.30;66.50;;;;;;5044605;28;20276;-67
2021/05/06 14:25:52;;;;;;;5.05;4.85;;;14.60;65.50;;;;;;5044899;28;20232;-67
2021/05/06 14:28:18;;;;;;;4.35;4.15;;;14.90;63.60;;;;;;5044420;28;20577;-67
2021/05/06 14:30:45;;;;;;;4.88;4.68;;;15.20;62.70;;;;;;5043765;28;20209;-67
2021/05/06 14:33:12;;;;;;;4.78;4.57;;;15.30;62.30;;;;;;5042113;28;20551;-67
2021/05/06 14:35:38;;;;;;;4.80;4.60;;;15.50;61.80;;;;;;5044426;28;20215;-67
2021/05/06 14:38:09;;;;;;;4.45;4.25;;;15.50;61.00;;;;;;5042854;28;20267;-66
2021/05/06 14:40:38;;;;;;;4.60;4.40;;;15.50;60.70;;;;;;5047236;28;20204;-66
2021/05/06 14:43:06;;;;;;;4.40;4.20;;;15.20;59.00;;;;;;5046852;28;20220;-68
2021/05/06 14:45:35;;;;;;;4.70;4.50;;;15.10;59.00;;;;;;5044200;28;20250;-67
2021/05/06 14:48:02;;;;;;;4.85;4.65;;;15.10;60.10;;;;;;5046326;28;20278;-68
2021/05/06 14:50:31;;;;;;;4.50;4.20;;;15.10;59.90;;;;;;5039652;28;20264;-68
2021/05/06 14:52:58;;;;;;;4.63;4.43;;;15.10;60.50;;;;;;5041122;28;20251;-67
2021/05/06 14:55:26;;;;;;;5.30;4.90;;;15.00;60.20;;;;;;5039947;28;20279;-66
2021/05/06 14:57:52;;;;;;;4.18;4.07;;;15.10;59.90;;;;;;5047340;28;20257;-67
2021/05/06 15:00:21;;;;;;;4.53;4.32;;;15.30;59.80;;;;;;5044718;28;20212;-68
2021/05/06 15:02:49;;;;;;;4.32;4.22;;;15.50;58.80;;;;;;5061786;28;20208;-67
2021/05/06 15:05:17;;;;;;;4.85;4.65;;;15.30;59.20;;;;;;5041167;28;20757;-68
2021/05/06 15:07:44;;;;;;;4.40;4.20;;;15.00;59.80;;;;;;5043557;28;20444;-67
2021/05/06 15:10:12;;;;;;;4.10;3.90;;;15.00;60.70;;;;;;5042039;28;20526;-68
2021/05/06 15:12:42;;;;;;;4.00;3.90;;;15.00;61.10;;;;;;5049238;28;20208;-68
2021/05/06 15:15:09;;;;;;;4.65;4.45;;;15.00;61.00;;;;;;5040344;28;20200;-67
2021/05/06 15:17:36;;;;;;;4.90;4.60;;;15.00;61.10;;;;;;5044611;28;20289;-67
2021/05/06 15:20:03;;;;;;;4.43;4.22;;;15.10;61.00;;;;;;5042191;28;20232;-68
2021/05/06 15:22:30;;;;;;;4.20;4.10;;;15.30;59.40;;;;;;5045057;28;20304;-67
2021/05/06 15:25:11;;;;;;;4.60;4.40;;;15.20;58.90;;;;;;5044659;28;20205;-68
2021/05/06 15:27:41;;;;;;;4.68;4.47;;;15.30;58.60;;;;;;5040513;28;20229;-68
2021/05/06 15:30:11;;;;;;;5.47;5.07;;;15.30;57.90;;;;;;5040578;28;20208;-67
2021/05/06 15:32:38;;;;;;;4.32;4.13;;;15.20;58.60;;;;;;5045544;28;20204;-68
2021/05/06 15:35:06;;;;;;;3.92;3.83;;;15.30;59.40;;;;;;5040572;28;20205;-66
2021/05/06 15:37:33;;;;;;;4.30;4.10;;;15.30;58.70;;;;;;5040540;28;20240;-66
2021/05/06 15:40:00;;;;;;;4.40;4.20;;;15.30;58.70;;;;;;5047933;28;20319;-68
2021/05/06 15:42:26;;;;;;;9.85;4.68;;;15.30;58.30;;;;;;5039893;28;20212;-67
2021/05/06 15:44:53;;;;;;;4.82;4.53;;;15.10;59.10;;;;;;5043558;28;20516;-67
2021/05/06 15:47:19;;;;;;;4.55;4.43;;;15.10;59.70;;;;;;5041589;28;20284;-67
2021/05/06 15:49:47;;;;;;;4.70;4.30;;;15.10;60.10;;;;;;5038645;28;20548;-68
2021/05/06 15:52:14;;;;;;;4.28;4.18;;;15.30;59.80;;;;;;5036474;28;20208;-67
2021/05/06 15:54:41;;;;;;;4.53;4.32;;;15.30;58.20;;;;;;5044999;28;20312;-68
2021/05/06 15:57:08;;;;;;;4.43;4.32;;;15.30;58.30;;;;;;5044616;28;20450;-65
2021/05/06 15:59:36;;;;;;;4.50;4.40;;;15.20;58.70;;;;;;5046516;28;20206;-67
2021/05/06 16:02:25;;;;;;;3.90;3.80;;;15.10;58.40;;;;;;5053309;28;20484;-67
2021/05/06 16:04:51;;;;;;;4.10;3.90;;;15.00;58.70;;;;;;5055706;28;20216;-68
2021/05/06 16:07:19;;;;;;;3.95;3.85;;;15.00;58.20;;;;;;5059025;28;20542;-67
2021/05/06 16:09:47;;;;;;;4.10;3.90;;;14.90;58.00;;;;;;5057419;28;20275;-68
2021/05/06 16:12:14;;;;;;;4.60;4.40;;;14.90;58.10;;;;;;5063939;28;20195;-67
2021/05/06 16:14:40;;;;;;;4.15;4.05;;;14.90;58.70;;;;;;5045392;28;20201;-67
2021/05/06 16:17:07;;;;;;;4.35;4.15;;;14.70;59.40;;;;;;5052206;28;20214;-67
2021/05/06 16:19:33;;;;;;;4.05;3.95;;;14.60;59.60;;;;;;5057404;28;20372;-66
2021/05/06 16:22:02;;;;;;;4.05;3.90;;;14.40;59.30;;;;;;5058022;28;20208;-66
2021/05/06 16:24:29;;;;;;;4.30;4.00;;;14.30;60.10;;;;;;5056141;28;20208;-66
2021/05/06 16:26:56;;;;;;;4.32;4.18;;;14.20;60.30;;;;;;5056347;28;20240;-67
2021/05/06 16:29:23;;;;;;;4.20;3.90;;;14.10;61.10;;;;;;5053077;28;20191;-68
2021/05/06 16:31:50;;;;;;;4.53;4.32;;;14.00;61.70;;;;;;5053390;28;20581;-67
2021/05/06 16:34:22;;;;;;;5.70;4.05;;;14.00;62.40;;;;;;5067001;28;20206;-66